Flight Track Log - Related Links

Times and Time Zones

All times are in EDT time to prevent confusion due to time zone crossing. See the JZA7927 flight status page for this flight to view local times or setup timezone preferences in your user account.

Time Position Orientation Groundspeed Altitude Reporting Facility
EDT Latitude Longitude Course Direction KTS MPH feet Rate Location/Type
Sat 06:21:07 AM 39.1667 -76.6333 North 115 132 1,300  Level Potomac TRACON
Sat 06:22:01 AM 39.2000 -76.6167 21° North 145 167 2,300 1,100 Climbing Potomac TRACON
Sat 06:23:07 AM 39.2333 -76.5833 38° Northeast 152 175 3,500 1,105 Climbing Potomac TRACON
Sat 06:23:55 AM 39.2667 -76.5667 21° North 163 188 4,400 908 Climbing Potomac TRACON
Sat 06:24:00 AM 39.4296 -76.6518 21° North  Level FlightAware Approximate
Sat 06:25:00 AM 39.4915 -76.6167 North  Level FlightAware Approximate
Sat 06:25:39 AM 39.3617 -76.5794 354° North 186 214 5,800  Level New York Center
Sat 06:26:00 AM 39.5599 -76.6167 North  Level FlightAware Approximate
Sat 06:26:39 AM 39.4156 -76.5839 356° North 197 227 7,100  Level New York Center
Sat 06:27:40 AM 39.4614 -76.5875 357° North 181 208 8,000 1,160 Climbing New York Center
Sat 06:28:38 AM 39.5092 -76.5914 356° North 170 196 9,400 1,311 Climbing New York Center
Sat 06:29:39 AM 39.5506 -76.5950 356° North 155 178 10,600 1,091 Climbing New York Center
Sat 06:30:39 AM 39.5922 -76.5983 356° North 150 173 11,600 694 Climbing New York Center
Sat 06:31:40 AM 39.6381 -76.5994 359° North 150 173 12,000 198 Climbing New York Center
Sat 06:32:40 AM 39.6981 -76.6044 356° North 198 228 12,000  Level New York Center
Sat 06:33:41 AM 39.7625 -76.6097 356° North 216 249 12,000  Level New York Center
Sat 06:34:40 AM 39.8183 -76.6603 325° Northwest 229 264 12,000  Level New York Center
Sat 06:35:41 AM 39.8744 -76.7083 327° Northwest 241 277 12,000  Level New York Center
Sat 06:36:40 AM 39.9303 -76.7564 327° Northwest 241 277 12,000  Level New York Center
Sat 06:37:39 AM 39.9911 -76.7942 335° Northwest 241 277 12,000  Level New York Center
Sat 06:38:39 AM 40.0536 -76.8322 335° Northwest 241 277 12,000  Level New York Center
Sat 06:39:39 AM 40.1142 -76.8700 334° Northwest 241 277 12,000  Level New York Center
Sat 06:40:41 AM 40.1708 -76.9050 335° Northwest 241 277 12,000  Level New York Center
Sat 06:41:41 AM 40.2397 -76.9436 337° Northwest 241 277 12,000  Level New York Center
Sat 06:42:39 AM 40.2922 -76.9756 335° Northwest 241 277 12,000  Level New York Center
Sat 06:43:40 AM 40.3589 -77.0169 335° Northwest 241 277 12,000  Level New York Center
Sat 06:44:40 AM 40.4133 -77.0517 334° Northwest 241 277 12,000  Level New York Center
Sat 06:45:41 AM 40.4819 -77.0936 335° Northwest 241 277 12,000  Level New York Center
Sat 06:46:40 AM 40.5364 -77.1258 336° Northwest 241 277 12,000  Level New York Center
Sat 06:47:39 AM 40.6008 -77.1675 334° Northwest 241 277 12,000  Level New York Center
Sat 06:48:41 AM 40.6556 -77.1997 336° Northwest 234 269 12,000 50 Level New York Center
Sat 06:49:39 AM 40.7161 -77.2356 336° Northwest 234 269 12,100 50 Climbing New York Center
Sat 06:50:40 AM 40.7767 -77.2714 336° Northwest 234 269 12,100  Level New York Center
Sat 06:51:39 AM 40.8350 -77.3100 333° Northwest 234 269 12,100 -50 Level New York Center
Sat 06:52:41 AM 40.9014 -77.3519 334° Northwest 234 269 12,000  Descending New York Center
Sat 06:53:40 AM 40.9619 -77.3853 337° Northwest 234 269 12,100 50 Climbing New York Center
Sat 06:54:40 AM 41.0222 -77.4269 332° Northwest 234 269 12,100  Level New York Center
Sat 06:55:41 AM 41.0828 -77.4633 336° Northwest 234 269 12,100  Level New York Center
Sat 06:56:40 AM 41.1411 -77.4994 335° Northwest 234 269 12,100  Level New York Center
Sat 06:57:40 AM 41.1994 -77.5383 333° Northwest 234 269 12,100  Level New York Center
Sat 06:58:40 AM 41.2578 -77.5717 337° Northwest 234 269 12,100  Level New York Center
Sat 06:59:40 AM 41.3161 -77.6081 335° Northwest 234 269 12,100 -61 Level New York Center
Sat 07:01:56 AM 41.4525 -77.6933 335° Northwest 233 268 11,900 -61 Descending Cleveland Center
Sat 07:02:56 AM 41.5097 -77.7297 335° Northwest 233 268 11,900  Level Cleveland Center
Sat 07:03:56 AM 41.5689 -77.7689 334° Northwest 233 268 11,900  Level Cleveland Center
Sat 07:04:56 AM 41.6283 -77.8050 336° Northwest 233 268 11,900  Level Cleveland Center
Sat 07:05:56 AM 41.6875 -77.8442 334° Northwest 233 268 11,900  Level Cleveland Center
Sat 07:06:56 AM 41.7447 -77.8808 334° Northwest 233 268 11,900  Level Cleveland Center
Sat 07:07:56 AM 41.8039 -77.9172 335° Northwest 233 268 11,900  Level Cleveland Center
Sat 07:08:56 AM 41.8633 -77.9567 334° Northwest 233 268 11,900 50 Level Cleveland Center
Sat 07:09:56 AM 41.9267 -77.9931 337° Northwest 240 276 12,000 50 Climbing Cleveland Center
Sat 07:10:56 AM 41.9839 -78.0328 333° Northwest 240 276 12,000  Level Cleveland Center
Sat 07:11:56 AM 42.0453 -78.0722 334° Northwest 235 270 12,000  Level Cleveland Center
Sat 07:12:56 AM 42.1022 -78.1092 334° Northwest 235 270 12,000  Level Cleveland Center
Sat 07:13:56 AM 42.1636 -78.1461 336° Northwest 235 270 12,000  Level Cleveland Center
Sat 07:14:56 AM 42.2206 -78.1831 334° Northwest 235 270 12,000  Level Cleveland Center
Sat 07:15:56 AM 42.2797 -78.2203 335° Northwest 235 270 12,000  Level Cleveland Center
Sat 07:16:56 AM 42.3389 -78.2600 334° Northwest 235 270 12,000  Level Cleveland Center
Sat 07:17:56 AM 42.3981 -78.2972 335° Northwest 235 270 12,000  Level Cleveland Center
Sat 07:18:56 AM 42.4569 -78.3344 335° Northwest 235 270 12,000  Level Cleveland Center
Sat 07:19:56 AM 42.5142 -78.3747 333° Northwest 235 270 12,000  Level Cleveland Center
Sat 07:20:56 AM 42.5711 -78.4122 334° Northwest 235 270 12,000  Level Cleveland Center
Sat 07:21:56 AM 42.6261 -78.4611 327° Northwest 230 265 12,000  Level Cleveland Center
Sat 07:22:56 AM 42.6711 -78.5217 315° West 225 259 12,000  Level Cleveland Center
Sat 07:23:56 AM 42.7181 -78.5794 318° Northwest 225 259 12,000  Level Cleveland Center
Sat 07:24:56 AM 42.7500 -78.6267 313° West 225 259 12,000  Level Cleveland Center
Sat 07:25:56 AM 42.8011 -78.6931 316° Northwest 225 259 12,000  Level Cleveland Center
Sat 07:26:56 AM 42.8500 -78.7539 318° Northwest 225 259 12,000  Level Cleveland Center
Sat 07:27:56 AM 42.8947 -78.8119 316° Northwest 225 259 12,000  Level Cleveland Center
Sat 07:29:53 AM 42.9833 -78.9333 315° West 230 265 12,000  Level Toronto Center
Sat 07:30:52 AM 43.0333 -78.9667 334° Northwest 230 265 12,000  Level Toronto Center

Login

Don't have an account? Register now (free) for customized features, flight alerts, and more!